• Join FlightAware (Why Join?)
  • Login
  • US Flag 
01:54AM EST


 

Airport Tracker/Info


-or-


 

Live Flight TrackerFlight Track Log ✈ FDX1570 ✈ 03-Jul-2013 ✈ KMEM - KALB

Flight Track Log - Related Links

Times and Time Zones

All times are in EDT time to prevent confusion due to time zone crossing. See the FDX1570 flight status page for this flight to view local times or setup timezone preferences in your user account.

Time Position Orientation Groundspeed Altitude Reporting Facility
EDT Latitude Longitude Course Direction KTS MPH feet Rate Location/Type
04:54AM 35.0333 -89.9667 171° South 180 207 1,000  Level KMEM
04:55AM 34.9500 -89.9500 171° South 252 290 3,800 2,400 Climbing KMEM
04:56AM 34.9167 -89.8667 116° Southeast 298 343 6,600 2,880 Climbing KMEM
04:57AM 34.9500 -89.7833 64° Northeast 301 346 9,600 2,340 Climbing KMEM
04:58AM 34.9953 -89.7006 56° Northeast 323 372 11,100 1,620 Climbing Memphis Center
05:00AM 35.0939 -89.4842 61° Northeast 394 453 14,400 1,740 Climbing Memphis Center
05:01AM 35.1681 -89.3689 52° Northeast 417 480 16,400 1,920 Climbing Memphis Center
05:02AM 35.2381 -89.2486 55° Northeast 433 498 18,300 1,800 Climbing Memphis Center
05:03AM 35.3119 -89.1256 54° Northeast 433 498 20,100 1,620 Climbing Memphis Center
05:04AM 35.3919 -88.9969 53° Northeast 457 526 21,600 1,680 Climbing Memphis Center
05:05AM 35.4697 -88.8631 54° Northeast 471 542 23,500 1,680 Climbing Memphis Center
05:10AM 35.9180 -88.1160 54° Northeast 544 626 31,900 1,620 Climbing FlightAware
05:11AM 35.9730 -88.0230 54° Northeast 539 620 33,000 1,740 Climbing FlightAware
05:12AM 36.0410 -87.9070 54° Northeast 534 615 34,400 1,740 Climbing FlightAware
05:13AM 36.1020 -87.8010 55° Northeast 528 608 35,600 1,620 Climbing FlightAware
05:13AM 36.1610 -87.7010 54° Northeast 523 602 36,700 1,020 Climbing FlightAware
05:14AM 36.2180 -87.6040 54° Northeast 524 603 37,000 180 Climbing FlightAware
05:15AM 36.2750 -87.5060 54° Northeast 531 611 37,000  Level FlightAware
05:15AM 36.3300 -87.4110 54° Northeast 538 619 37,000  Level FlightAware
05:16AM 36.3850 -87.3160 54° Northeast 539 620 37,000  Level FlightAware
05:17AM 36.4550 -87.1950 54° Northeast 537 618 37,000  Level FlightAware
05:17AM 36.5120 -87.0940 55° Northeast 538 619 37,000  Level FlightAware
05:18AM 36.5680 -86.9990 54° Northeast 537 618 37,000  Level FlightAware
05:19AM 36.6280 -86.8930 55° Northeast 537 618 37,000  Level FlightAware
05:19AM 36.6454 -86.8600 57° Northeast 537 618 37,000  Level FlightAware ADS-B
05:19AM 36.6897 -86.7843 54° Northeast 538 619 37,000  Level FlightAware ADS-B
05:20AM 36.7335 -86.7059 55° Northeast 537 618 37,000  Level FlightAware ADS-B
05:20AM 36.7767 -86.6300 55° Northeast 536 617 37,000  Level FlightAware ADS-B
05:21AM 36.8204 -86.5517 55° Northeast 535 616 37,000  Level FlightAware ADS-B
05:21AM 36.8644 -86.4734 55° Northeast 535 616 37,000  Level FlightAware ADS-B
05:22AM 36.9077 -86.3976 54° Northeast 536 617 37,000  Level FlightAware ADS-B
05:22AM 36.9510 -86.3192 55° Northeast 535 616 37,000  Level FlightAware ADS-B
05:23AM 36.9974 -86.2380 54° Northeast 536 617 37,000  Level FlightAware ADS-B
05:24AM 37.0440 -86.1520 56° Northeast 536 617 37,000  Level FlightAware
05:24AM 37.1060 -86.0420 55° Northeast 537 618 37,000  Level FlightAware
05:25AM 37.1600 -85.9450 55° Northeast 538 619 37,000  Level FlightAware
05:26AM 37.2160 -85.8420 56° Northeast 537 618 37,000  Level FlightAware
05:26AM 37.2800 -85.7270 55° Northeast 539 620 37,000  Level FlightAware
05:27AM 37.3270 -85.6420 55° Northeast 537 618 37,000  Level FlightAware
05:28AM 37.3860 -85.5340 55° Northeast 537 618 37,000  Level FlightAware
05:28AM 37.4520 -85.4130 55° Northeast 535 616 37,000  Level FlightAware
05:29AM 37.4757 -85.3698 55° Northeast 534 615 37,000  Level FlightAware ADS-B
05:29AM 37.5187 -85.2904 56° Northeast 533 613 37,000  Level FlightAware ADS-B
05:30AM 37.5629 -85.2086 56° Northeast 532 612 37,000  Level FlightAware ADS-B
05:30AM 37.6073 -85.1266 56° Northeast 531 611 37,000  Level FlightAware ADS-B
05:31AM 37.6488 -85.0501 56° Northeast 530 610 37,000  Level FlightAware ADS-B
05:31AM 37.7124 -84.9326 56° Northeast 530 610 37,000  Level FlightAware ADS-B
05:32AM 37.7870 -84.7940 56° Northeast 530 610 37,000  Level FlightAware
05:33AM 37.8479 -84.6784 56° Northeast 530 610 37,000  Level FlightAware ADS-B
05:34AM 37.9030 -84.5750 56° Northeast 532 612 37,000  Level FlightAware
05:34AM 37.9510 -84.4840 56° Northeast 534 615 37,000  Level FlightAware
05:35AM 37.9980 -84.3960 56° Northeast 536 617 37,000  Level FlightAware
05:36AM 38.0590 -84.2800 56° Northeast 536 617 37,000  Level FlightAware
05:36AM 38.1030 -84.1980 56° Northeast 536 617 37,000  Level FlightAware
05:37AM 38.1480 -84.1140 56° Northeast 536 617 37,000  Level FlightAware
05:38AM 38.2610 -83.8940 57° Northeast 532 612 37,000  Level FlightAware
05:39AM 38.3060 -83.8080 56° Northeast 532 612 37,000  Level FlightAware
05:39AM 38.3600 -83.7040 56° Northeast 532 612 37,000  Level FlightAware
05:40AM 38.4070 -83.6150 56° Northeast 532 612 37,000  Level FlightAware
05:41AM 38.4630 -83.5090 56° Northeast 532 612 37,000  Level FlightAware
05:41AM 38.5050 -83.4290 56° Northeast 532 612 37,000  Level FlightAware
05:42AM 38.5490 -83.3450 56° Northeast 532 612 37,000  Level FlightAware
05:43AM 38.6350 -83.1690 58° Northeast 531 611 37,000  Level FlightAware
05:43AM 38.6900 -83.0600 57° Northeast 531 611 37,000  Level FlightAware
05:44AM 38.7470 -82.9470 57° Northeast 530 610 37,000  Level FlightAware
05:45AM 38.8030 -82.8360 57° Northeast 528 608 37,000  Level FlightAware
05:45AM 38.8570 -82.7310 57° Northeast 527 606 37,000  Level FlightAware
05:46AM 38.9040 -82.6360 58° Northeast 527 606 37,000  Level FlightAware
05:47AM 38.9640 -82.5160 57° Northeast 525 604 37,000  Level FlightAware
05:47AM 39.0140 -82.4160 57° Northeast 524 603 37,000  Level FlightAware
05:48AM 39.0630 -82.3160 58° Northeast 524 603 37,000  Level FlightAware
05:49AM 39.1160 -82.2080 58° Northeast 523 602 37,000  Level FlightAware
05:49AM 39.1670 -82.1050 57° Northeast 522 601 37,000  Level FlightAware
05:50AM 39.2250 -81.9870 58° Northeast 522 601 37,000  Level FlightAware
05:51AM 39.2820 -81.8710 58° Northeast 522 601 37,000  Level FlightAware
05:52AM 39.3350 -81.7630 58° Northeast 523 602 37,000  Level FlightAware
05:52AM 39.3860 -81.6570 58° Northeast 523 602 37,000  Level FlightAware
05:53AM 39.4360 -81.5540 58° Northeast 524 603 37,000  Level FlightAware
05:53AM 39.4780 -81.4680 58° Northeast 525 604 37,000  Level FlightAware
05:54AM 39.5430 -81.3320 58° Northeast 525 604 37,000  Level FlightAware
05:55AM 39.5870 -81.2390 58° Northeast 525 604 37,000  Level FlightAware
05:56AM 39.6400 -81.1310 57° Northeast 526 605 37,000  Level FlightAware
05:56AM 39.6930 -81.0190 58° Northeast 527 606 37,000  Level FlightAware
05:57AM 39.7420 -80.9140 59° Northeast 527 606 37,000  Level FlightAware
05:58AM 39.8000 -80.7920 58° Northeast 527 606 37,000  Level FlightAware
05:58AM 39.8520 -80.6840 58° Northeast 527 606 37,000  Level FlightAware
05:59AM 39.9030 -80.5760 58° Northeast 526 605 37,000  Level FlightAware
06:00AM 39.9590 -80.4540 59° Northeast 527 606 37,000  Level FlightAware
06:00AM 40.0040 -80.3570 59° Northeast 527 606 37,000  Level FlightAware
06:01AM 40.0550 -80.2510 58° Northeast 527 606 37,000  Level FlightAware
06:01AM 40.0910 -80.1720 59° Northeast 527 606 37,000  Level FlightAware
06:02AM 40.1350 -80.0760 59° Northeast 527 606 37,000  Level FlightAware
06:03AM 40.1880 -79.9590 59° Northeast 527 606 37,000  Level FlightAware
06:04AM 40.2430 -79.8410 59° Northeast 526 605 37,000  Level FlightAware
06:04AM 40.2830 -79.7540 59° Northeast 525 604 37,000  Level FlightAware
06:05AM 40.3380 -79.6310 60° Northeast 525 604 37,000  Level FlightAware
06:05AM 40.3900 -79.5190 59° Northeast 525 604 37,000  Level FlightAware
06:06AM 40.4440 -79.3990 59° Northeast 524 603 37,000  Level FlightAware
06:07AM 40.4970 -79.2810 59° Northeast 525 604 37,000  Level FlightAware
06:08AM 40.5450 -79.1740 59° Northeast 525 604 37,000  Level FlightAware
06:08AM 40.5990 -79.0530 60° Northeast 523 602 37,000  Level FlightAware
06:09AM 40.6440 -78.9540 59° Northeast 523 602 37,000  Level FlightAware
06:10AM 40.7070 -78.8110 60° Northeast 523 602 37,000  Level FlightAware
06:11AM 40.7700 -78.6700 59° Northeast 523 602 37,000  Level FlightAware
06:11AM 40.8090 -78.5790 60° Northeast 523 602 37,000  Level FlightAware
06:12AM 40.8520 -78.4800 60° Northeast 522 601 37,000  Level FlightAware
06:13AM 40.9050 -78.3610 59° Northeast 522 601 37,000  Level FlightAware
06:13AM 40.9540 -78.2480 60° Northeast 523 602 37,000  Level FlightAware
06:14AM 41.0000 -78.1420 60° Northeast 524 603 37,000  Level FlightAware
06:14AM 41.0440 -78.0390 60° Northeast 523 602 37,000  Level FlightAware
06:15AM 41.1151 -77.8754 60° Northeast 524 603 37,000 -120 Level FlightAware ADS-B
06:16AM 41.1612 -77.7846 56° Northeast 526 605 36,900 -660 Descending FlightAware ADS-B
06:17AM 41.2360 -77.6610 51° Northeast 529 609 36,100 -1,020 Descending FlightAware
06:17AM 41.2617 -77.6202 50° Northeast 529 609 35,800 -1,200 Descending FlightAware ADS-B
06:18AM 41.3420 -77.4883 51° Northeast 530 610 34,800 -1,620 Descending FlightAware ADS-B
06:19AM 41.4290 -77.3460 51° Northeast 524 603 32,900 -2,100 Descending FlightAware
06:19AM 41.4558 -77.3017 51° Northeast 518 596 32,300 -2,040 Descending FlightAware ADS-B
06:20AM 41.5190 -77.1990 51° Northeast 507 583 30,900 -1,980 Descending FlightAware
06:20AM 41.5710 -77.1150 50° Northeast 498 573 29,700 -1,440 Descending FlightAware
06:21AM 41.6380 -77.0050 51° Northeast 513 590 29,000 -600 Descending FlightAware
06:22AM 41.7020 -76.9010 50° Northeast 543 625 28,900 -720 Descending FlightAware
06:23AM 41.7650 -76.7960 51° Northeast 548 631 28,100 -1,080 Descending FlightAware
06:23AM 41.8530 -76.6480 51° Northeast 547 629 27,200 -960 Descending FlightAware
06:24AM 41.9130 -76.5480 51° Northeast 543 625 26,600 -960 Descending FlightAware
06:25AM 41.9860 -76.4270 51° Northeast 540 621 25,900 -1,080 Descending FlightAware
06:26AM 42.0480 -76.3220 51° Northeast 538 619 25,100 -1,140 Descending FlightAware
06:26AM 42.1100 -76.2190 51° Northeast 522 601 24,400 -840 Descending FlightAware
06:27AM 42.1690 -76.1010 56° Northeast 509 586 24,000 -360 Descending FlightAware
06:28AM 42.2070 -75.9990 63° Northeast 510 587 24,000  Level FlightAware
06:28AM 42.2480 -75.8600 68° East 503 579 24,000  Level FlightAware
06:29AM 42.2690 -75.7830 70° East 476 548 24,000  Level FlightAware
06:29AM 42.2950 -75.6840 70° East 460 529 24,000 -420 Level FlightAware
06:30AM 42.3250 -75.5750 70° East 447 514 23,500 -960 Descending FlightAware
06:31AM 42.3560 -75.4640 69° East 439 505 22,700 -1,380 Descending FlightAware
06:31AM 42.3840 -75.3650 69° East 430 495 21,600 -1,860 Descending FlightAware
06:32AM 42.4150 -75.2530 69° East 420 483 20,000 -1,320 Descending FlightAware
06:33AM 42.4460 -75.1410 69° East 414 476 19,500 -420 Descending FlightAware
06:33AM 42.4610 -75.0890 69° East 414 476 19,500  Level FlightAware
06:34AM 42.4820 -75.0150 69° East 414 476 19,500  Level FlightAware
06:35AM 42.5100 -74.9160 69° East 414 476 19,500  Level FlightAware
06:35AM 42.5300 -74.8440 69° East 414 476 19,500  Level FlightAware
06:36AM 42.5580 -74.7450 69° East 414 476 19,500 -5,340 Level FlightAware
06:37AM 42.5903 -74.6033 69° East 382 440 11,000 -4,860 Descending Boston Center
06:38AM 42.6219 -74.4633 73° East 359 413 10,800 -780 Descending Boston Center
06:39AM 42.6592 -74.3656 63° Northeast 326 375 9,500 -1,860 Descending Boston Center
06:40AM 42.7028 -74.2567 61° Northeast 299 344 7,100 -2,040 Descending Boston Center
06:41AM 42.7375 -74.1644 63° Northeast 280 322 5,500 -1,200 Descending Boston Center
06:42AM 42.7722 -74.0778 61° Northeast 252 290 4,700 -1,020 Descending Boston Center
06:43AM 42.7981 -74.0019 65° Northeast 253 291 3,500 -1,020 Descending Boston Center
06:44AM 42.8244 -73.9150 67° East 248 285 2,700 -540 Descending Boston Center
06:45AM 42.8525 -73.8222 68° East 243 280 2,500 -900 Descending Boston Center
06:46AM 42.7861 -73.8094 172° South 131 151 900 -1,560 Descending Boston Center